createdAt,value
2022-12-22T00:02:35.170Z,37.17
2022-12-22T00:05:59.176Z,42.53
2022-12-22T00:09:24.127Z,40.77
2022-12-22T00:12:48.271Z,24.90
2022-12-22T00:16:11.939Z,45.07
2022-12-22T00:19:35.654Z,65.37
2022-12-22T00:22:59.735Z,55.23
2022-12-22T00:26:24.309Z,56.07
2022-12-22T00:29:54.591Z,35.23
2022-12-22T00:33:18.781Z,35.57
2022-12-22T00:36:43.216Z,24.37
2022-12-22T00:40:07.899Z,21.93
2022-12-22T00:43:33.365Z,29.07
2022-12-22T00:46:59.347Z,19.70
2022-12-22T00:50:24.220Z,37.37
2022-12-22T00:53:48.539Z,49.43
2022-12-22T00:57:12.082Z,22.73
2022-12-22T01:00:37.977Z,18.63
2022-12-22T01:04:01.902Z,21.00
2022-12-22T01:07:25.953Z,18.50
2022-12-22T01:10:50.391Z,22.77
2022-12-22T01:14:13.844Z,19.50
2022-12-22T01:17:38.769Z,25.07
2022-12-22T01:21:02.426Z,26.60
2022-12-22T01:24:30.931Z,21.20
2022-12-22T01:27:54.820Z,31.47
2022-12-22T01:31:35.408Z,25.73
2022-12-22T01:35:00.684Z,31.67
2022-12-22T01:38:24.516Z,20.90
2022-12-22T01:41:48.646Z,33.53
2022-12-22T01:45:12.554Z,26.80
2022-12-22T01:48:37.666Z,23.43
2022-12-22T01:52:02.471Z,19.03
2022-12-22T01:55:31.035Z,22.00
2022-12-22T01:59:00.281Z,27.97
2022-12-22T02:02:25.743Z,26.83
2022-12-22T02:05:53.018Z,31.70
2022-12-22T02:09:33.490Z,19.67
2022-12-22T02:13:04.234Z,26.77
2022-12-22T02:16:33.588Z,20.97
2022-12-22T02:20:21.528Z,24.73
2022-12-22T02:24:06.094Z,25.67
2022-12-22T02:27:31.435Z,24.73
2022-12-22T02:30:55.349Z,23.47
2022-12-22T02:34:19.273Z,24.50
2022-12-22T02:37:49.212Z,17.23
2022-12-22T02:41:25.699Z,25.90
2022-12-22T02:45:04.977Z,17.73
2022-12-22T02:48:34.794Z,18.03
2022-12-22T02:52:09.935Z,29.23
2022-12-22T02:55:35.311Z,23.07
2022-12-22T02:58:59.220Z,26.97
2022-12-22T03:02:24.072Z,22.27
2022-12-22T03:05:47.682Z,24.60
2022-12-22T03:09:11.606Z,19.83
2022-12-22T03:12:35.332Z,19.47
2022-12-22T03:15:59.503Z,19.80
2022-12-22T03:19:24.467Z,22.07
2022-12-22T03:22:48.321Z,33.80
2022-12-22T03:25:55.230Z,37.50
2022-12-22T03:29:01.347Z,22.03
2022-12-22T03:32:07.598Z,30.73
2022-12-22T03:35:15.275Z,21.97
2022-12-22T03:38:21.694Z,25.00
2022-12-22T03:41:45.515Z,22.27
2022-12-22T03:45:08.839Z,29.23
2022-12-22T03:48:15.171Z,39.33
2022-12-22T03:51:22.579Z,39.87
2022-12-22T03:54:29.027Z,34.80
2022-12-22T03:57:35.222Z,24.77
2022-12-22T04:00:41.467Z,30.43
2022-12-22T04:03:47.496Z,36.10
2022-12-22T04:06:55.526Z,37.20
2022-12-22T04:10:19.454Z,27.83
2022-12-22T04:13:25.207Z,36.03
2022-12-22T04:16:31.508Z,21.73
2022-12-22T04:19:37.629Z,24.50
2022-12-22T04:22:46.584Z,23.60
2022-12-22T04:25:52.801Z,28.93
2022-12-22T04:28:58.830Z,30.73
2022-12-22T04:32:05.355Z,22.23
2022-12-22T04:35:12.353Z,28.03
2022-12-22T04:38:20.174Z,38.40
2022-12-22T04:41:26.571Z,29.27
2022-12-22T04:44:32.929Z,22.27
2022-12-22T04:47:39.110Z,30.00
2022-12-22T04:50:45.543Z,25.40
2022-12-22T04:53:53.009Z,14.13
2022-12-22T04:56:59.512Z,25.17
2022-12-22T05:00:06.480Z,32.27
2022-12-22T05:03:12.978Z,30.13
2022-12-22T05:06:19.116Z,39.20
2022-12-22T05:09:26.745Z,24.40
2022-12-22T05:12:50.283Z,30.87
2022-12-22T05:15:56.324Z,34.80
2022-12-22T05:19:02.318Z,46.67
2022-12-22T05:22:08.626Z,30.67
2022-12-22T05:25:17.736Z,22.90
2022-12-22T05:28:24.025Z,24.33
2022-12-22T05:31:30.269Z,27.90
2022-12-22T05:34:36.375Z,21.97
2022-12-22T05:37:42.696Z,128.80
2022-12-22T05:40:50.691Z,77.50
2022-12-22T05:43:56.872Z,53.00
2022-12-22T05:47:03.293Z,54.77
2022-12-22T05:50:11.558Z,52.37
2022-12-22T05:53:17.759Z,49.63
2022-12-22T05:56:25.356Z,86.33
2022-12-22T05:59:31.665Z,67.50
2022-12-22T06:02:37.980Z,44.60
2022-12-22T06:05:44.364Z,31.63
2022-12-22T06:08:50.725Z,39.33
2022-12-22T06:11:58.281Z,49.17
2022-12-22T06:15:05.511Z,40.03
2022-12-22T06:18:11.937Z,36.57
2022-12-22T06:21:17.903Z,52.60
2022-12-22T06:24:23.949Z,23.27
2022-12-22T06:27:31.096Z,20.40
2022-12-22T06:30:37.308Z,38.50
2022-12-22T06:33:43.407Z,42.50
2022-12-22T06:36:50.391Z,59.30
2022-12-22T06:39:56.657Z,65.33
2022-12-22T06:43:10.790Z,64.73
2022-12-22T06:46:17.429Z,67.43
2022-12-22T06:49:23.725Z,95.43
2022-12-22T06:52:30.120Z,73.30
2022-12-22T06:55:36.425Z,65.43
2022-12-22T06:58:44.186Z,71.87
2022-12-22T07:01:50.574Z,82.57
2022-12-22T07:04:56.735Z,71.70
2022-12-22T07:08:08.513Z,68.30
2022-12-22T07:11:16.491Z,61.27
2022-12-22T07:14:24.223Z,58.67
2022-12-22T07:17:30.348Z,50.17
2022-12-22T07:20:36.410Z,63.10
2022-12-22T07:23:42.767Z,64.83
2022-12-22T07:26:48.764Z,48.13
2022-12-22T07:29:56.430Z,44.43
2022-12-22T07:33:02.623Z,38.40
2022-12-22T07:36:12.396Z,32.47
2022-12-22T07:39:18.841Z,35.83
2022-12-22T07:42:42.844Z,48.83
2022-12-22T07:45:50.615Z,49.90
2022-12-22T07:49:14.299Z,38.40
2022-12-22T07:52:20.532Z,54.00
2022-12-22T07:55:29.143Z,50.07
2022-12-22T07:58:35.698Z,33.90
2022-12-22T08:01:44.020Z,50.83
2022-12-22T08:04:50.296Z,34.67
2022-12-22T08:07:56.409Z,51.57
2022-12-22T08:11:03.614Z,62.53
2022-12-22T08:14:10.492Z,60.50
2022-12-22T08:17:18.922Z,61.60
2022-12-22T08:20:26.090Z,40.13
2022-12-22T08:23:32.727Z,37.70
2022-12-22T08:26:44.072Z,43.23
2022-12-22T08:29:56.916Z,35.00
2022-12-22T08:33:04.951Z,43.70
2022-12-22T08:36:12.445Z,44.00
2022-12-22T08:39:21.932Z,42.03
2022-12-22T08:42:28.484Z,46.37
2022-12-22T08:45:34.681Z,52.97
2022-12-22T08:48:42.279Z,44.33
2022-12-22T08:51:49.160Z,33.90
2022-12-22T08:54:55.274Z,28.30
2022-12-22T08:58:01.641Z,28.73
2022-12-22T09:01:07.530Z,25.43
2022-12-22T09:04:15.910Z,50.73
2022-12-22T09:07:22.060Z,59.63
2022-12-22T09:10:28.213Z,44.07
2022-12-22T09:13:34.565Z,53.30
2022-12-22T09:16:41.767Z,55.33
2022-12-22T09:19:49.641Z,47.23
2022-12-22T09:22:56.085Z,51.07
2022-12-22T09:26:07.587Z,41.10
2022-12-22T09:29:15.746Z,44.00
2022-12-22T09:32:22.361Z,59.47
2022-12-22T09:35:29.843Z,63.83
2022-12-22T09:38:37.250Z,40.37
2022-12-22T09:41:46.691Z,44.17
2022-12-22T09:44:53.165Z,40.87
2022-12-22T09:47:59.432Z,36.83
2022-12-22T09:51:12.911Z,50.23
2022-12-22T09:54:19.730Z,50.03
2022-12-22T09:57:31.472Z,46.23
2022-12-22T10:00:38.457Z,37.80
2022-12-22T10:03:52.736Z,41.43
2022-12-22T10:07:13.946Z,37.10
2022-12-22T10:10:25.502Z,29.07
2022-12-22T10:13:32.154Z,40.93
2022-12-22T10:16:38.655Z,46.03
2022-12-22T10:19:45.298Z,41.97
2022-12-22T10:22:55.671Z,38.30
2022-12-22T10:29:34.774Z,65.37
2022-12-22T10:32:41.271Z,47.43
2022-12-22T10:35:53.566Z,47.67
2022-12-22T10:39:04.146Z,40.57
2022-12-22T10:42:13.891Z,51.80
2022-12-22T10:45:22.739Z,58.47
2022-12-22T10:48:34.791Z,39.43
2022-12-22T10:51:42.353Z,26.17
2022-12-22T10:54:50.458Z,24.00
2022-12-22T10:58:15.822Z,22.47
2022-12-22T11:01:28.808Z,20.10
2022-12-22T11:04:35.291Z,28.87
2022-12-22T11:07:43.419Z,20.47
2022-12-22T11:10:56.623Z,22.97
2022-12-22T11:14:15.865Z,15.70
2022-12-22T11:17:31.724Z,17.10
2022-12-22T11:20:52.973Z,26.87
2022-12-22T11:24:06.653Z,20.87
2022-12-22T11:27:29.011Z,18.93
2022-12-22T11:30:40.931Z,7.73
2022-12-22T11:34:00.182Z,12.67
2022-12-22T11:37:22.903Z,9.37
2022-12-22T11:40:34.254Z,16.97
2022-12-22T11:43:58.803Z,6.70
2022-12-22T11:47:13.332Z,13.27
2022-12-22T11:51:01.236Z,13.27
2022-12-22T11:54:44.155Z,10.77
2022-12-22T11:58:11.880Z,17.87
2022-12-22T12:01:41.583Z,16.80
2022-12-22T12:05:27.531Z,13.77
2022-12-22T12:08:43.690Z,14.93
2022-12-22T12:11:59.497Z,16.47
2022-12-22T12:15:20.680Z,21.47
2022-12-22T12:18:57.957Z,19.13
2022-12-22T12:22:07.258Z,24.80
2022-12-22T12:25:26.565Z,10.40
2022-12-22T12:28:39.901Z,18.47
2022-12-22T12:31:52.456Z,12.60
2022-12-22T12:35:06.805Z,20.90
2022-12-22T12:38:47.917Z,16.17
2022-12-22T12:41:57.678Z,15.40
2022-12-22T12:45:05.307Z,21.90
2022-12-22T12:48:42.582Z,23.20
2022-12-22T12:51:51.079Z,22.10
2022-12-22T12:55:31.406Z,20.10
2022-12-22T12:58:53.927Z,43.10
2022-12-22T13:02:01.645Z,26.37
2022-12-22T13:05:28.870Z,30.43
2022-12-22T13:12:52.333Z,20.27
2022-12-22T13:16:33.818Z,18.87
2022-12-22T13:19:40.307Z,14.47
2022-12-22T13:22:47.599Z,14.50
2022-12-22T13:25:59.333Z,18.00
2022-12-22T13:29:11.144Z,15.60
2022-12-22T13:32:26.618Z,34.43
2022-12-22T13:35:44.801Z,41.60
2022-12-22T13:39:01.898Z,42.83
2022-12-22T13:42:13.888Z,43.40
2022-12-22T13:45:30.747Z,29.17
2022-12-22T13:48:44.620Z,34.90
2022-12-22T13:51:53.235Z,37.30
2022-12-22T13:54:59.784Z,99.63
2022-12-22T13:58:16.776Z,62.37
2022-12-22T14:01:23.097Z,48.77
2022-12-22T14:04:29.843Z,110.90
2022-12-22T14:07:36.148Z,93.47
2022-12-22T14:10:45.675Z,79.87
2022-12-22T14:13:53.213Z,90.20
2022-12-22T14:17:01.013Z,106.87
2022-12-22T14:20:18.880Z,78.00
2022-12-22T14:23:30.702Z,89.87
2022-12-22T14:26:37.832Z,85.57
2022-12-22T14:29:46.398Z,59.30
2022-12-22T14:32:55.973Z,83.90
2022-12-22T14:36:07.681Z,96.20
2022-12-22T14:39:24.052Z,101.93
2022-12-22T14:42:31.995Z,91.07
2022-12-22T14:45:39.963Z,86.80
2022-12-22T14:48:48.511Z,89.47
2022-12-22T14:52:01.110Z,60.33
2022-12-22T14:55:23.995Z,37.60
2022-12-22T14:58:34.314Z,38.20
2022-12-22T15:01:42.191Z,41.83
2022-12-22T15:04:48.477Z,33.17
2022-12-22T15:08:06.604Z,55.13
2022-12-22T15:11:16.691Z,57.77
2022-12-22T15:14:24.904Z,73.13
2022-12-22T15:17:32.636Z,146.47
2022-12-22T15:20:40.896Z,146.57
2022-12-22T15:23:47.833Z,133.17
2022-12-22T15:26:54.207Z,112.57
2022-12-22T15:30:00.486Z,111.30
2022-12-22T15:33:14.380Z,93.27
2022-12-22T15:36:20.641Z,95.30
2022-12-22T15:39:27.245Z,107.97
2022-12-22T15:42:33.848Z,87.60
2022-12-22T15:45:41.106Z,81.17
2022-12-22T15:48:49.431Z,115.37
2022-12-22T15:51:58.626Z,131.93
2022-12-22T15:55:05.467Z,137.47
2022-12-22T15:58:14.257Z,83.30
2022-12-22T16:01:20.581Z,78.40
2022-12-22T16:04:28.629Z,108.57
2022-12-22T16:07:35.318Z,90.20
2022-12-22T16:10:42.246Z,112.20
2022-12-22T16:13:50.593Z,63.20
2022-12-22T16:16:56.779Z,60.17
2022-12-22T16:20:05.309Z,57.50
2022-12-22T16:23:17.003Z,48.57
2022-12-22T16:26:23.929Z,63.60
2022-12-22T16:29:30.206Z,106.33
2022-12-22T16:32:36.389Z,135.00
2022-12-22T16:35:44.274Z,128.10
2022-12-22T16:38:50.756Z,101.43
2022-12-22T16:42:00.006Z,66.97
2022-12-22T16:45:15.598Z,76.77
2022-12-22T16:48:30.665Z,80.90
2022-12-22T16:51:45.494Z,55.50
2022-12-22T16:54:52.921Z,55.67
2022-12-22T16:57:59.691Z,35.03
2022-12-22T17:01:06.802Z,25.57
2022-12-22T17:04:17.100Z,35.40
2022-12-22T17:07:24.896Z,33.20
2022-12-22T17:10:31.359Z,39.13
2022-12-22T17:13:38.589Z,57.00
2022-12-22T17:16:44.611Z,53.77
2022-12-22T17:19:51.792Z,42.40
2022-12-22T17:23:01.853Z,37.87
2022-12-22T17:26:10.473Z,41.77
2022-12-22T17:29:18.781Z,43.07
2022-12-22T17:32:25.370Z,81.77
2022-12-22T17:35:33.441Z,63.23
2022-12-22T17:38:41.348Z,59.33
2022-12-22T17:41:55.915Z,54.30
2022-12-22T17:45:03.567Z,49.70
2022-12-22T17:48:10.174Z,68.87
2022-12-22T17:51:18.586Z,53.57
2022-12-22T17:54:27.848Z,50.07
2022-12-22T17:57:36.781Z,55.70
2022-12-22T18:00:43.330Z,86.93
2022-12-22T18:03:49.580Z,120.43
2022-12-22T18:06:56.055Z,118.03
2022-12-22T18:10:03.601Z,92.33
2022-12-22T18:13:16.773Z,211.23
2022-12-22T18:16:23.361Z,165.83
2022-12-22T18:19:29.629Z,44.97
2022-12-22T18:22:36.020Z,40.63
2022-12-22T18:25:43.821Z,39.57
2022-12-22T18:28:50.648Z,59.83
2022-12-22T18:31:56.667Z,88.17
2022-12-22T18:35:03.203Z,62.77
2022-12-22T18:38:23.358Z,71.43
2022-12-22T18:41:34.829Z,67.27
2022-12-22T18:44:40.944Z,33.33
2022-12-22T18:47:47.499Z,41.97
2022-12-22T18:50:53.937Z,44.87
2022-12-22T18:54:00.106Z,47.03
2022-12-22T18:57:14.357Z,39.63
2022-12-22T19:00:22.375Z,70.30
2022-12-22T19:03:30.782Z,57.23
2022-12-22T19:06:38.083Z,69.80
2022-12-22T19:09:44.346Z,71.20
2022-12-22T19:12:53.898Z,59.43
2022-12-22T19:16:00.778Z,51.97
2022-12-22T19:19:06.967Z,63.80
2022-12-22T19:22:14.525Z,62.23
2022-12-22T19:25:23.316Z,59.30
2022-12-22T19:28:34.418Z,78.23
2022-12-22T19:31:40.952Z,106.23
2022-12-22T19:34:47.339Z,93.93
2022-12-22T19:37:54.651Z,96.43
2022-12-22T19:41:03.156Z,105.30
2022-12-22T19:44:19.037Z,82.30
2022-12-22T19:47:28.485Z,88.83
2022-12-22T19:50:34.362Z,72.37
2022-12-22T19:53:40.469Z,81.77
2022-12-22T19:56:49.877Z,88.27
2022-12-22T19:59:57.100Z,64.90
2022-12-22T20:03:03.504Z,49.40
2022-12-22T20:06:10.069Z,40.50
2022-12-22T20:09:16.188Z,71.57
2022-12-22T20:12:27.665Z,65.90
2022-12-22T20:15:38.135Z,54.40
2022-12-22T20:18:46.703Z,55.90
2022-12-22T20:21:53.847Z,79.77
2022-12-22T20:25:00.807Z,80.03
2022-12-22T20:28:17.166Z,85.90
2022-12-22T20:31:25.773Z,96.97
2022-12-22T20:34:31.991Z,72.70
2022-12-22T20:37:38.099Z,38.63
2022-12-22T20:40:44.728Z,25.67
2022-12-22T20:43:51.198Z,30.80
2022-12-22T20:46:59.721Z,46.43
2022-12-22T20:50:20.139Z,36.53
2022-12-22T20:53:26.481Z,48.30
2022-12-22T20:56:34.926Z,51.87
2022-12-22T20:59:41.215Z,64.83
2022-12-22T21:02:48.868Z,65.20
2022-12-22T21:05:55.594Z,71.30
2022-12-22T21:09:03.621Z,61.60
2022-12-22T21:12:09.825Z,65.17
2022-12-22T21:15:21.329Z,35.90
2022-12-22T21:18:28.761Z,44.80
2022-12-22T21:21:34.943Z,59.80
2022-12-22T21:24:41.925Z,60.33
2022-12-22T21:27:50.428Z,60.03
2022-12-22T21:30:56.807Z,55.37
2022-12-22T21:34:04.476Z,54.93
2022-12-22T21:37:17.596Z,50.13
2022-12-22T21:40:25.677Z,46.20
2022-12-22T21:43:31.689Z,51.60
2022-12-22T21:46:38.005Z,44.57
2022-12-22T21:49:45.572Z,37.90
2022-12-22T21:52:51.483Z,39.33
2022-12-22T21:55:57.604Z,45.40
2022-12-22T21:59:04.328Z,37.90
2022-12-22T22:02:17.548Z,42.27
2022-12-22T22:05:27.842Z,47.73
2022-12-22T22:08:34.090Z,34.53
2022-12-22T22:12:00.192Z,36.33
2022-12-22T22:15:08.007Z,39.27
2022-12-22T22:18:17.698Z,30.70
2022-12-22T22:21:25.518Z,35.70
2022-12-22T22:24:32.201Z,31.03
2022-12-22T22:27:42.913Z,41.30
2022-12-22T22:30:52.642Z,29.03
2022-12-22T22:33:59.070Z,45.20
2022-12-22T22:37:07.195Z,54.10
2022-12-22T22:40:15.990Z,49.23
2022-12-22T22:43:22.226Z,39.17
2022-12-22T22:46:28.459Z,46.07
2022-12-22T22:49:34.831Z,24.50
2022-12-22T22:52:42.656Z,21.83
2022-12-22T22:55:49.202Z,18.60
2022-12-22T22:58:55.535Z,19.67
2022-12-22T23:02:02.220Z,28.87
2022-12-22T23:05:09.116Z,45.93
2022-12-22T23:08:16.738Z,34.80
2022-12-22T23:11:23.202Z,104.97
2022-12-22T23:14:29.653Z,63.90
2022-12-22T23:17:36.076Z,57.27
2022-12-22T23:20:45.797Z,58.27
2022-12-22T23:23:57.242Z,36.50
2022-12-22T23:27:03.784Z,40.30
2022-12-22T23:30:11.241Z,39.93
2022-12-22T23:33:17.905Z,40.23
2022-12-22T23:36:24.239Z,47.00
2022-12-22T23:39:32.276Z,62.30
2022-12-22T23:42:38.865Z,45.63
2022-12-22T23:45:44.994Z,37.63
2022-12-22T23:48:55.609Z,28.77
2022-12-22T23:52:02.267Z,31.03
2022-12-22T23:55:11.246Z,39.83
2022-12-22T23:58:18.685Z,36.67
